GAP2315 RPVM-RPMY
Flight info
| Callsign | GAP2315 |
|---|---|
| Flight time | 0h 27m |
| Altitude | 15000 |
| Route | DUMEX4P DUMEX W6A SAGOL SAGOL4A |
| Aircraft | DH8D/M-SDE2E3FGRY/H |
Departure
| Time | 2026-05-03 22:21 |
|---|---|
| Airport | Mactan Cebu International Airport (RPVM) |
Arrival
| Time | 2026-05-03 22:49 |
|---|---|
| Airport | Laguindingan International Airport (RPMY) |
| Time | Latitude | Longitude | Altitude | Speed | Heading |
|---|---|---|---|---|---|
| 2026-05-03 22:06 | 10.31784 | 123.98189 | 38 ft | 0 kts | 314° |
| 2026-05-03 22:10 | 10.31784 | 123.98188 | 37 ft | 0 kts | 314° |
| 2026-05-03 22:10 | 10.31784 | 123.98189 | 37 ft | 0 kts | 314° |
| 2026-05-03 22:10 | 10.31778 | 123.98195 | 37 ft | 2 kts | 314° |
| 2026-05-03 22:11 | 10.31771 | 123.98202 | 37 ft | 2 kts | 309° |
| 2026-05-03 22:11 | 10.31765 | 123.98216 | 37 ft | 2 kts | 281° |
| 2026-05-03 22:11 | 10.31764 | 123.98230 | 37 ft | 1 kts | 256° |
| 2026-05-03 22:11 | 10.31763 | 123.98226 | 37 ft | 3 kts | 249° |
| 2026-05-03 22:12 | 10.31745 | 123.98209 | 37 ft | 3 kts | 208° |
| 2026-05-03 22:12 | 10.31722 | 123.98196 | 37 ft | 3 kts | 211° |
| 2026-05-03 22:12 | 10.31699 | 123.98181 | 37 ft | 3 kts | 218° |
| 2026-05-03 22:12 | 10.31692 | 123.98174 | 37 ft | 1 kts | 227° |
| 2026-05-03 22:13 | 10.31690 | 123.98172 | 37 ft | 0 kts | 226° |
| 2026-05-03 22:15 | 10.31675 | 123.98157 | 37 ft | 5 kts | 224° |
| 2026-05-03 22:15 | 10.31640 | 123.98125 | 37 ft | 6 kts | 217° |
| 2026-05-03 22:15 | 10.31593 | 123.98121 | 37 ft | 7 kts | 153° |
| 2026-05-03 22:15 | 10.31550 | 123.98161 | 37 ft | 9 kts | 135° |
| 2026-05-03 22:16 | 10.31503 | 123.98211 | 37 ft | 10 kts | 134° |
| 2026-05-03 22:16 | 10.31451 | 123.98226 | 37 ft | 8 kts | 206° |
| 2026-05-03 22:16 | 10.31399 | 123.98178 | 37 ft | 11 kts | 225° |
| 2026-05-03 22:16 | 10.31330 | 123.98109 | 37 ft | 15 kts | 225° |
| 2026-05-03 22:17 | 10.31250 | 123.98028 | 37 ft | 17 kts | 225° |
| 2026-05-03 22:17 | 10.31157 | 123.97935 | 37 ft | 19 kts | 224° |
| 2026-05-03 22:17 | 10.31058 | 123.97836 | 37 ft | 20 kts | 225° |
| 2026-05-03 22:17 | 10.30957 | 123.97733 | 37 ft | 19 kts | 225° |
| 2026-05-03 22:18 | 10.30863 | 123.97639 | 37 ft | 19 kts | 225° |
| 2026-05-03 22:18 | 10.30766 | 123.97541 | 37 ft | 20 kts | 225° |
| 2026-05-03 22:18 | 10.30664 | 123.97439 | 37 ft | 20 kts | 225° |
| 2026-05-03 22:18 | 10.30561 | 123.97337 | 37 ft | 20 kts | 225° |
| 2026-05-03 22:19 | 10.30466 | 123.97241 | 37 ft | 17 kts | 224° |
| 2026-05-03 22:19 | 10.30396 | 123.97172 | 37 ft | 9 kts | 221° |
| 2026-05-03 22:19 | 10.30340 | 123.97170 | 37 ft | 8 kts | 139° |
| 2026-05-03 22:19 | 10.30292 | 123.97219 | 37 ft | 11 kts | 134° |
| 2026-05-03 22:20 | 10.30227 | 123.97285 | 37 ft | 13 kts | 134° |
| 2026-05-03 22:20 | 10.30170 | 123.97330 | 37 ft | 5 kts | 152° |
| 2026-05-03 22:20 | 10.30160 | 123.97343 | 37 ft | 2 kts | 73° |
| 2026-05-03 22:20 | 10.30195 | 123.97381 | 37 ft | 24 kts | 45° |
| 2026-05-03 22:21 | 10.30557 | 123.97744 | 37 ft | 115 kts | 44° |
| 2026-05-03 22:21 | 10.31237 | 123.98437 | 192 ft | 151 kts | 43° |
| 2026-05-03 22:21 | 10.32004 | 123.99218 | 681 ft | 165 kts | 44° |
| 2026-05-03 22:21 | 10.32838 | 124.00063 | 1315 ft | 173 kts | 45° |
| 2026-05-03 22:22 | 10.33698 | 124.00929 | 1959 ft | 180 kts | 45° |
| 2026-05-03 22:22 | 10.34539 | 124.01872 | 2505 ft | 185 kts | 58° |
| 2026-05-03 22:22 | 10.34793 | 124.03135 | 3063 ft | 189 kts | 97° |
| 2026-05-03 22:22 | 10.34163 | 124.04308 | 3606 ft | 196 kts | 135° |
| 2026-05-03 22:23 | 10.32934 | 124.04933 | 4146 ft | 202 kts | 159° |
| 2026-05-03 22:23 | 10.31591 | 124.05314 | 4701 ft | 205 kts | 162° |
| 2026-05-03 22:23 | 10.30226 | 124.05684 | 5320 ft | 203 kts | 162° |
| 2026-05-03 22:23 | 10.28857 | 124.06042 | 5851 ft | 205 kts | 162° |
| 2026-05-03 22:24 | 10.27476 | 124.06399 | 6394 ft | 207 kts | 162° |
| 2026-05-03 22:24 | 10.26064 | 124.06759 | 6897 ft | 209 kts | 162° |
| 2026-05-03 22:24 | 10.24647 | 124.07117 | 7450 ft | 209 kts | 163° |
| 2026-05-03 22:24 | 10.23222 | 124.07473 | 7912 ft | 212 kts | 162° |
| 2026-05-03 22:25 | 10.21787 | 124.07832 | 8415 ft | 213 kts | 163° |
| 2026-05-03 22:25 | 10.20337 | 124.08192 | 8908 ft | 214 kts | 163° |
| 2026-05-03 22:25 | 10.18892 | 124.08549 | 9358 ft | 216 kts | 163° |
| 2026-05-03 22:25 | 10.17411 | 124.08916 | 9877 ft | 218 kts | 163° |
| 2026-05-03 22:26 | 10.15931 | 124.09280 | 10386 ft | 222 kts | 163° |
| 2026-05-03 22:26 | 10.14411 | 124.09653 | 10907 ft | 225 kts | 162° |
| 2026-05-03 22:26 | 10.12879 | 124.10029 | 11436 ft | 229 kts | 162° |
| 2026-05-03 22:26 | 10.11348 | 124.10403 | 12103 ft | 232 kts | 162° |
| 2026-05-03 22:27 | 10.09731 | 124.10801 | 12588 ft | 246 kts | 162° |
| 2026-05-03 22:27 | 10.08010 | 124.11228 | 13035 ft | 262 kts | 162° |
| 2026-05-03 22:27 | 10.06211 | 124.11671 | 13690 ft | 267 kts | 162° |
| 2026-05-03 22:27 | 10.04406 | 124.12114 | 14431 ft | 269 kts | 162° |
| 2026-05-03 22:28 | 10.02541 | 124.12575 | 14843 ft | 286 kts | 162° |
| 2026-05-03 22:28 | 10.00515 | 124.13080 | 14980 ft | 310 kts | 162° |
| 2026-05-03 22:28 | 9.98358 | 124.13616 | 15020 ft | 332 kts | 163° |
| 2026-05-03 22:28 | 9.96027 | 124.14195 | 15035 ft | 351 kts | 163° |
| 2026-05-03 22:29 | 9.93611 | 124.14790 | 15027 ft | 357 kts | 163° |
| 2026-05-03 22:29 | 9.91204 | 124.15382 | 15032 ft | 358 kts | 163° |
| 2026-05-03 22:29 | 9.88756 | 124.15981 | 15033 ft | 359 kts | 163° |
| 2026-05-03 22:29 | 9.86295 | 124.16585 | 15033 ft | 360 kts | 163° |
| 2026-05-03 22:30 | 9.83853 | 124.17182 | 15041 ft | 360 kts | 163° |
| 2026-05-03 22:30 | 9.81428 | 124.17775 | 15048 ft | 361 kts | 163° |
| 2026-05-03 22:30 | 9.78959 | 124.18379 | 15052 ft | 361 kts | 163° |
| 2026-05-03 22:30 | 9.76532 | 124.18972 | 15058 ft | 361 kts | 163° |
| 2026-05-03 22:31 | 9.74077 | 124.19572 | 15061 ft | 361 kts | 163° |
| 2026-05-03 22:31 | 9.71621 | 124.20173 | 15056 ft | 361 kts | 163° |
| 2026-05-03 22:31 | 9.69151 | 124.20776 | 15052 ft | 361 kts | 163° |
| 2026-05-03 22:31 | 9.66704 | 124.21374 | 15044 ft | 362 kts | 163° |
| 2026-05-03 22:32 | 9.64253 | 124.21972 | 15037 ft | 361 kts | 163° |
| 2026-05-03 22:32 | 9.61819 | 124.22567 | 15030 ft | 361 kts | 163° |
| 2026-05-03 22:32 | 9.59363 | 124.23167 | 15027 ft | 360 kts | 163° |
| 2026-05-03 22:32 | 9.56924 | 124.23762 | 15019 ft | 360 kts | 163° |
| 2026-05-03 22:33 | 9.54460 | 124.24363 | 15012 ft | 359 kts | 163° |
| 2026-05-03 22:33 | 9.52047 | 124.24952 | 15002 ft | 359 kts | 163° |
| 2026-05-03 22:33 | 9.49614 | 124.25625 | 14997 ft | 358 kts | 159° |
| 2026-05-03 22:33 | 9.47262 | 124.26409 | 14994 ft | 357 kts | 158° |
| 2026-05-03 22:34 | 9.44895 | 124.27204 | 14995 ft | 357 kts | 158° |
| 2026-05-03 22:34 | 9.42491 | 124.28007 | 14995 ft | 357 kts | 159° |
| 2026-05-03 22:34 | 9.40134 | 124.28792 | 14997 ft | 357 kts | 159° |
| 2026-05-03 22:34 | 9.37778 | 124.29572 | 14996 ft | 357 kts | 159° |
| 2026-05-03 22:35 | 9.35416 | 124.30351 | 14995 ft | 357 kts | 159° |
| 2026-05-03 22:35 | 9.33047 | 124.31131 | 14993 ft | 357 kts | 159° |
| 2026-05-03 22:35 | 9.30653 | 124.31918 | 14994 ft | 357 kts | 159° |
| 2026-05-03 22:35 | 9.28291 | 124.32693 | 14992 ft | 357 kts | 159° |
| 2026-05-03 22:36 | 9.25917 | 124.33471 | 14993 ft | 357 kts | 159° |
| 2026-05-03 22:36 | 9.23541 | 124.34248 | 14993 ft | 357 kts | 159° |
| 2026-05-03 22:36 | 9.21178 | 124.35022 | 14993 ft | 357 kts | 159° |
| 2026-05-03 22:36 | 9.18803 | 124.35798 | 14996 ft | 357 kts | 159° |
| 2026-05-03 22:37 | 9.16429 | 124.36574 | 14993 ft | 357 kts | 159° |
| 2026-05-03 22:37 | 9.14102 | 124.37337 | 14908 ft | 355 kts | 159° |
| 2026-05-03 22:37 | 9.11719 | 124.38124 | 14530 ft | 357 kts | 159° |
| 2026-05-03 22:37 | 9.09362 | 124.38900 | 14073 ft | 356 kts | 159° |
| 2026-05-03 22:38 | 9.07003 | 124.39675 | 13596 ft | 354 kts | 159° |
| 2026-05-03 22:38 | 9.04662 | 124.40429 | 13065 ft | 353 kts | 161° |
| 2026-05-03 22:38 | 9.02254 | 124.40629 | 12581 ft | 346 kts | 185° |
| 2026-05-03 22:38 | 8.99963 | 124.39887 | 12141 ft | 344 kts | 201° |
| 2026-05-03 22:39 | 8.97781 | 124.38893 | 11640 ft | 343 kts | 202° |
| 2026-05-03 22:39 | 8.95611 | 124.37881 | 11167 ft | 340 kts | 203° |
| 2026-05-03 22:39 | 8.93460 | 124.36871 | 10696 ft | 334 kts | 203° |
| 2026-05-03 22:39 | 8.91394 | 124.35901 | 10245 ft | 323 kts | 203° |
| 2026-05-03 22:40 | 8.89380 | 124.34956 | 9811 ft | 310 kts | 203° |
| 2026-05-03 22:40 | 8.87455 | 124.34050 | 9397 ft | 298 kts | 203° |
| 2026-05-03 22:40 | 8.85606 | 124.33180 | 9002 ft | 287 kts | 203° |
| 2026-05-03 22:40 | 8.83826 | 124.32342 | 8624 ft | 277 kts | 203° |
| 2026-05-03 22:41 | 8.82094 | 124.31525 | 8258 ft | 273 kts | 203° |
| 2026-05-03 22:41 | 8.80382 | 124.30720 | 7893 ft | 269 kts | 203° |
| 2026-05-03 22:41 | 8.78686 | 124.29922 | 7537 ft | 266 kts | 203° |
| 2026-05-03 22:41 | 8.77013 | 124.29137 | 7182 ft | 263 kts | 203° |
| 2026-05-03 22:42 | 8.75361 | 124.28360 | 6833 ft | 263 kts | 203° |
| 2026-05-03 22:42 | 8.73677 | 124.27569 | 6475 ft | 266 kts | 203° |
| 2026-05-03 22:42 | 8.71988 | 124.26776 | 6111 ft | 267 kts | 203° |
| 2026-05-03 22:42 | 8.70299 | 124.26010 | 5727 ft | 265 kts | 199° |
| 2026-05-03 22:43 | 8.68500 | 124.25769 | 5378 ft | 254 kts | 175° |
| 2026-05-03 22:43 | 8.66766 | 124.25893 | 5037 ft | 244 kts | 173° |
| 2026-05-03 22:43 | 8.65110 | 124.26024 | 4711 ft | 236 kts | 173° |
| 2026-05-03 22:43 | 8.63487 | 124.26154 | 4392 ft | 227 kts | 172° |
| 2026-05-03 22:44 | 8.61943 | 124.26299 | 4024 ft | 221 kts | 167° |
| 2026-05-03 22:44 | 8.60639 | 124.27022 | 3538 ft | 208 kts | 123° |
| 2026-05-03 22:44 | 8.60243 | 124.28336 | 3302 ft | 197 kts | 90° |
| 2026-05-03 22:44 | 8.60250 | 124.29728 | 3042 ft | 199 kts | 86° |
| 2026-05-03 22:45 | 8.60302 | 124.31139 | 2776 ft | 202 kts | 85° |
| 2026-05-03 22:45 | 8.60375 | 124.32558 | 2502 ft | 200 kts | 84° |
| 2026-05-03 22:45 | 8.60457 | 124.33925 | 2235 ft | 189 kts | 84° |
| 2026-05-03 22:45 | 8.60531 | 124.35151 | 2007 ft | 166 kts | 84° |
| 2026-05-03 22:46 | 8.60595 | 124.36242 | 1794 ft | 144 kts | 83° |
| 2026-05-03 22:46 | 8.60650 | 124.37185 | 1634 ft | 125 kts | 83° |
| 2026-05-03 22:46 | 8.60697 | 124.38056 | 1468 ft | 124 kts | 84° |
| 2026-05-03 22:46 | 8.60747 | 124.38927 | 1304 ft | 123 kts | 84° |
| 2026-05-03 22:47 | 8.60802 | 124.39796 | 1149 ft | 125 kts | 83° |
| 2026-05-03 22:47 | 8.60862 | 124.40691 | 984 ft | 129 kts | 84° |
| 2026-05-03 22:47 | 8.60913 | 124.41615 | 842 ft | 133 kts | 85° |
| 2026-05-03 22:47 | 8.60983 | 124.42537 | 664 ft | 128 kts | 82° |
| 2026-05-03 22:48 | 8.61044 | 124.43411 | 489 ft | 126 kts | 84° |
| 2026-05-03 22:48 | 8.61110 | 124.44289 | 311 ft | 127 kts | 83° |
| 2026-05-03 22:48 | 8.61182 | 124.45174 | 198 ft | 121 kts | 83° |
| 2026-05-03 22:48 | 8.61234 | 124.45824 | 197 ft | 62 kts | 84° |
| 2026-05-03 22:49 | 8.61249 | 124.45979 | 197 ft | 2 kts | 103° |
| 2026-05-03 22:49 | 8.61230 | 124.45979 | 197 ft | 6 kts | 206° |
| 2026-05-03 22:49 | 8.61166 | 124.45965 | 197 ft | 10 kts | 176° |
| 2026-05-03 22:49 | 8.61091 | 124.45971 | 197 ft | 10 kts | 175° |
| 2026-05-03 22:50 | 8.61025 | 124.45968 | 197 ft | 8 kts | 213° |
| 2026-05-03 22:50 | 8.60976 | 124.45938 | 197 ft | 8 kts | 185° |
| 2026-05-03 22:50 | 8.60929 | 124.45941 | 197 ft | 2 kts | 175° |
| 2026-05-03 22:50 | 8.60924 | 124.45941 | 197 ft | 0 kts | 175° |